sensor_id;sensor_type;location;lat;lon;timestamp;P1;durP1;ratioP1;P2;durP2;ratioP2
6374;SDS011;35400;45.472;-122.822;2023-04-15T00:00:38;0.90;;;0.90;;
6374;SDS011;35400;45.472;-122.822;2023-04-15T00:03:05;1.73;;;1.17;;
6374;SDS011;35400;45.472;-122.822;2023-04-15T00:05:33;1.93;;;0.90;;
6374;SDS011;35400;45.472;-122.822;2023-04-15T00:08:00;0.80;;;0.80;;
6374;SDS011;35400;45.472;-122.822;2023-04-15T00:10:26;2.60;;;1.07;;
6374;SDS011;35400;45.472;-122.822;2023-04-15T00:12:53;3.80;;;1.00;;
6374;SDS011;35400;45.472;-122.822;2023-04-15T00:15:20;0.73;;;0.70;;
6374;SDS011;35400;45.472;-122.822;2023-04-15T00:17:48;1.57;;;1.00;;
6374;SDS011;35400;45.472;-122.822;2023-04-15T00:20:16;1.70;;;0.90;;
6374;SDS011;35400;45.472;-122.822;2023-04-15T00:22:43;1.07;;;1.00;;
6374;SDS011;35400;45.472;-122.822;2023-04-15T00:25:11;1.93;;;1.10;;
6374;SDS011;35400;45.472;-122.822;2023-04-15T00:27:37;1.40;;;1.30;;
6374;SDS011;35400;45.472;-122.822;2023-04-15T00:30:05;1.17;;;0.80;;
6374;SDS011;35400;45.472;-122.822;2023-04-15T00:32:32;1.27;;;1.00;;
6374;SDS011;35400;45.472;-122.822;2023-04-15T00:34:59;1.27;;;1.17;;
6374;SDS011;35400;45.472;-122.822;2023-04-15T00:37:27;1.20;;;1.10;;
6374;SDS011;35400;45.472;-122.822;2023-04-15T00:39:53;1.83;;;1.27;;
6374;SDS011;35400;45.472;-122.822;2023-04-15T00:42:21;2.07;;;0.97;;
6374;SDS011;35400;45.472;-122.822;2023-04-15T00:44:49;1.47;;;1.37;;
6374;SDS011;35400;45.472;-122.822;2023-04-15T00:47:17;0.90;;;0.90;;
6374;SDS011;35400;45.472;-122.822;2023-04-15T00:49:45;1.43;;;1.10;;
6374;SDS011;35400;45.472;-122.822;2023-04-15T00:52:11;1.47;;;0.90;;
6374;SDS011;35400;45.472;-122.822;2023-04-15T00:54:39;1.13;;;1.03;;
6374;SDS011;35400;45.472;-122.822;2023-04-15T00:57:06;1.20;;;1.03;;
6374;SDS011;35400;45.472;-122.822;2023-04-15T00:59:33;2.23;;;1.40;;
6374;SDS011;35400;45.472;-122.822;2023-04-15T01:02:00;1.57;;;1.20;;
6374;SDS011;35400;45.472;-122.822;2023-04-15T01:04:27;1.13;;;1.03;;
6374;SDS011;35400;45.472;-122.822;2023-04-15T01:06:55;3.00;;;1.03;;
6374;SDS011;35400;45.472;-122.822;2023-04-15T01:09:22;1.30;;;1.20;;
6374;SDS011;35400;45.472;-122.822;2023-04-15T01:11:49;2.13;;;1.20;;
6374;SDS011;35400;45.472;-122.822;2023-04-15T01:14:17;1.13;;;1.03;;
6374;SDS011;35400;45.472;-122.822;2023-04-15T01:16:44;1.57;;;1.17;;
6374;SDS011;35400;45.472;-122.822;2023-04-15T01:19:11;1.20;;;1.10;;
6374;SDS011;35400;45.472;-122.822;2023-04-15T01:21:42;1.63;;;0.90;;
6374;SDS011;35400;45.472;-122.822;2023-04-15T01:24:10;1.60;;;1.50;;
6374;SDS011;35400;45.472;-122.822;2023-04-15T01:26:38;1.63;;;1.40;;
6374;SDS011;35400;45.472;-122.822;2023-04-15T01:29:07;1.50;;;1.30;;
6374;SDS011;35400;45.472;-122.822;2023-04-15T01:31:34;1.30;;;0.93;;
6374;SDS011;35400;45.472;-122.822;2023-04-15T01:34:01;1.67;;;1.27;;
6374;SDS011;35400;45.472;-122.822;2023-04-15T01:36:27;1.60;;;1.27;;
6374;SDS011;35400;45.472;-122.822;2023-04-15T01:38:55;3.47;;;1.20;;
6374;SDS011;35400;45.472;-122.822;2023-04-15T01:41:25;1.27;;;1.17;;
6374;SDS011;35400;45.472;-122.822;2023-04-15T01:43:53;1.20;;;1.10;;
6374;SDS011;35400;45.472;-122.822;2023-04-15T01:46:21;1.57;;;1.10;;
6374;SDS011;35400;45.472;-122.822;2023-04-15T01:48:48;3.20;;;1.43;;
6374;SDS011;35400;45.472;-122.822;2023-04-15T01:51:15;1.50;;;0.77;;
6374;SDS011;35400;45.472;-122.822;2023-04-15T01:53:42;1.87;;;1.10;;
6374;SDS011;35400;45.472;-122.822;2023-04-15T01:56:09;1.43;;;0.87;;
6374;SDS011;35400;45.472;-122.822;2023-04-15T01:58:36;1.27;;;1.03;;
6374;SDS011;35400;45.472;-122.822;2023-04-15T02:01:04;0.80;;;0.80;;
6374;SDS011;35400;45.472;-122.822;2023-04-15T02:03:31;1.33;;;1.10;;
6374;SDS011;35400;45.472;-122.822;2023-04-15T02:05:58;1.10;;;0.97;;
6374;SDS011;35400;45.472;-122.822;2023-04-15T02:08:27;1.83;;;1.03;;
6374;SDS011;35400;45.472;-122.822;2023-04-15T02:10:54;1.97;;;1.30;;
6374;SDS011;35400;45.472;-122.822;2023-04-15T02:13:21;4.53;;;3.53;;
6374;SDS011;35400;45.472;-122.822;2023-04-15T02:15:48;5.60;;;3.43;;
6374;SDS011;35400;45.472;-122.822;2023-04-15T02:18:18;6.37;;;3.33;;
6374;SDS011;35400;45.472;-122.822;2023-04-15T02:20:45;2.53;;;2.00;;
6374;SDS011;35400;45.472;-122.822;2023-04-15T02:23:13;3.93;;;1.90;;
6374;SDS011;35400;45.472;-122.822;2023-04-15T02:25:42;2.77;;;2.00;;
6374;SDS011;35400;45.472;-122.822;2023-04-15T02:28:09;2.33;;;1.80;;
6374;SDS011;35400;45.472;-122.822;2023-04-15T02:30:36;3.83;;;1.93;;
6374;SDS011;35400;45.472;-122.822;2023-04-15T02:33:03;8.17;;;3.63;;
6374;SDS011;35400;45.472;-122.822;2023-04-15T02:35:30;4.83;;;2.80;;
6374;SDS011;35400;45.472;-122.822;2023-04-15T02:37:57;3.07;;;1.47;;
6374;SDS011;35400;45.472;-122.822;2023-04-15T02:40:24;1.53;;;1.17;;
6374;SDS011;35400;45.472;-122.822;2023-04-15T02:42:50;1.63;;;1.17;;
6374;SDS011;35400;45.472;-122.822;2023-04-15T02:45:17;1.90;;;1.23;;
6374;SDS011;35400;45.472;-122.822;2023-04-15T02:47:48;1.70;;;1.60;;
6374;SDS011;35400;45.472;-122.822;2023-04-15T02:50:15;1.97;;;1.20;;
6374;SDS011;35400;45.472;-122.822;2023-04-15T02:52:42;1.67;;;1.40;;
6374;SDS011;35400;45.472;-122.822;2023-04-15T02:55:09;1.50;;;1.37;;
6374;SDS011;35400;45.472;-122.822;2023-04-15T02:57:37;2.00;;;1.30;;
6374;SDS011;35400;45.472;-122.822;2023-04-15T03:00:08;1.50;;;1.40;;
6374;SDS011;35400;45.472;-122.822;2023-04-15T03:02:39;4.13;;;2.20;;
6374;SDS011;35400;45.472;-122.822;2023-04-15T03:05:10;6.00;;;3.87;;
6374;SDS011;35400;45.472;-122.822;2023-04-15T03:07:50;5.73;;;3.80;;
6374;SDS011;35400;45.472;-122.822;2023-04-15T03:10:17;8.80;;;3.70;;
6374;SDS011;35400;45.472;-122.822;2023-04-15T03:12:45;6.30;;;4.10;;
6374;SDS011;35400;45.472;-122.822;2023-04-15T03:15:16;7.17;;;3.43;;
6374;SDS011;35400;45.472;-122.822;2023-04-15T03:17:47;7.13;;;3.73;;
6374;SDS011;35400;45.472;-122.822;2023-04-15T03:20:14;8.93;;;4.10;;
6374;SDS011;35400;45.472;-122.822;2023-04-15T03:22:41;6.67;;;3.97;;
6374;SDS011;35400;45.472;-122.822;2023-04-15T03:25:08;7.93;;;4.67;;
6374;SDS011;35400;45.472;-122.822;2023-04-15T03:27:36;9.37;;;5.57;;
6374;SDS011;35400;45.472;-122.822;2023-04-15T03:30:04;5.87;;;4.30;;
6374;SDS011;35400;45.472;-122.822;2023-04-15T03:32:34;5.17;;;4.57;;
6374;SDS011;35400;45.472;-122.822;2023-04-15T03:35:01;7.03;;;5.40;;
6374;SDS011;35400;45.472;-122.822;2023-04-15T03:37:28;9.07;;;6.87;;
6374;SDS011;35400;45.472;-122.822;2023-04-15T03:39:55;6.17;;;4.77;;
6374;SDS011;35400;45.472;-122.822;2023-04-15T03:42:22;3.40;;;3.03;;
6374;SDS011;35400;45.472;-122.822;2023-04-15T03:44:48;3.30;;;2.97;;
6374;SDS011;35400;45.472;-122.822;2023-04-15T03:47:16;4.87;;;3.40;;
6374;SDS011;35400;45.472;-122.822;2023-04-15T03:49:43;4.77;;;3.77;;
6374;SDS011;35400;45.472;-122.822;2023-04-15T03:52:11;3.20;;;2.10;;
6374;SDS011;35400;45.472;-122.822;2023-04-15T03:54:37;1.70;;;1.60;;
6374;SDS011;35400;45.472;-122.822;2023-04-15T03:57:04;4.37;;;1.73;;
6374;SDS011;35400;45.472;-122.822;2023-04-15T03:59:31;1.63;;;1.40;;
6374;SDS011;35400;45.472;-122.822;2023-04-15T04:01:58;2.27;;;1.50;;
6374;SDS011;35400;45.472;-122.822;2023-04-15T04:04:25;1.33;;;1.23;;
6374;SDS011;35400;45.472;-122.822;2023-04-15T04:06:52;2.47;;;1.30;;
6374;SDS011;35400;45.472;-122.822;2023-04-15T04:09:19;3.23;;;1.80;;
6374;SDS011;35400;45.472;-122.822;2023-04-15T04:11:46;2.17;;;1.60;;
6374;SDS011;35400;45.472;-122.822;2023-04-15T04:14:13;2.43;;;1.50;;
6374;SDS011;35400;45.472;-122.822;2023-04-15T04:16:40;2.43;;;1.93;;
6374;SDS011;35400;45.472;-122.822;2023-04-15T04:19:07;1.87;;;1.67;;
6374;SDS011;35400;45.472;-122.822;2023-04-15T04:21:33;3.17;;;1.60;;
6374;SDS011;35400;45.472;-122.822;2023-04-15T04:24:01;3.03;;;1.87;;
6374;SDS011;35400;45.472;-122.822;2023-04-15T04:26:28;4.47;;;1.57;;
6374;SDS011;35400;45.472;-122.822;2023-04-15T04:28:55;1.60;;;1.50;;
6374;SDS011;35400;45.472;-122.822;2023-04-15T04:31:21;2.10;;;1.23;;
6374;SDS011;35400;45.472;-122.822;2023-04-15T04:33:48;2.27;;;1.40;;
6374;SDS011;35400;45.472;-122.822;2023-04-15T04:36:15;1.43;;;1.33;;
6374;SDS011;35400;45.472;-122.822;2023-04-15T04:38:43;2.40;;;2.00;;
6374;SDS011;35400;45.472;-122.822;2023-04-15T04:41:10;3.33;;;1.90;;
6374;SDS011;35400;45.472;-122.822;2023-04-15T04:43:36;1.80;;;1.70;;
6374;SDS011;35400;45.472;-122.822;2023-04-15T04:46:03;3.83;;;2.20;;
6374;SDS011;35400;45.472;-122.822;2023-04-15T04:48:30;2.90;;;1.80;;
6374;SDS011;35400;45.472;-122.822;2023-04-15T04:50:58;3.17;;;1.73;;
6374;SDS011;35400;45.472;-122.822;2023-04-15T04:53:25;2.37;;;1.70;;
6374;SDS011;35400;45.472;-122.822;2023-04-15T04:55:52;1.60;;;1.50;;
6374;SDS011;35400;45.472;-122.822;2023-04-15T04:58:19;2.60;;;1.93;;
6374;SDS011;35400;45.472;-122.822;2023-04-15T05:00:46;1.63;;;1.37;;
6374;SDS011;35400;45.472;-122.822;2023-04-15T05:03:13;2.07;;;1.40;;
6374;SDS011;35400;45.472;-122.822;2023-04-15T05:05:40;1.80;;;1.60;;
6374;SDS011;35400;45.472;-122.822;2023-04-15T05:08:07;2.67;;;1.70;;
6374;SDS011;35400;45.472;-122.822;2023-04-15T05:10:33;2.63;;;1.43;;
6374;SDS011;35400;45.472;-122.822;2023-04-15T05:13:01;2.77;;;1.50;;
6374;SDS011;35400;45.472;-122.822;2023-04-15T05:15:27;2.03;;;1.60;;
6374;SDS011;35400;45.472;-122.822;2023-04-15T05:17:54;1.80;;;1.20;;
6374;SDS011;35400;45.472;-122.822;2023-04-15T05:20:21;1.00;;;0.90;;
6374;SDS011;35400;45.472;-122.822;2023-04-15T05:22:48;2.53;;;1.10;;
6374;SDS011;35400;45.472;-122.822;2023-04-15T05:25:15;1.33;;;1.23;;
6374;SDS011;35400;45.472;-122.822;2023-04-15T05:27:42;2.47;;;1.20;;
6374;SDS011;35400;45.472;-122.822;2023-04-15T05:30:09;1.50;;;1.40;;
6374;SDS011;35400;45.472;-122.822;2023-04-15T05:32:36;3.23;;;1.47;;
6374;SDS011;35400;45.472;-122.822;2023-04-15T05:35:03;1.87;;;1.43;;
6374;SDS011;35400;45.472;-122.822;2023-04-15T05:37:30;1.90;;;1.50;;
6374;SDS011;35400;45.472;-122.822;2023-04-15T05:39:57;1.90;;;1.47;;
6374;SDS011;35400;45.472;-122.822;2023-04-15T05:42:23;2.60;;;1.40;;
6374;SDS011;35400;45.472;-122.822;2023-04-15T05:44:50;2.73;;;1.20;;
6374;SDS011;35400;45.472;-122.822;2023-04-15T05:47:17;1.73;;;1.30;;
6374;SDS011;35400;45.472;-122.822;2023-04-15T05:49:44;1.13;;;1.03;;
6374;SDS011;35400;45.472;-122.822;2023-04-15T05:52:11;2.37;;;1.10;;
6374;SDS011;35400;45.472;-122.822;2023-04-15T05:54:38;1.47;;;1.30;;
6374;SDS011;35400;45.472;-122.822;2023-04-15T05:57:05;1.90;;;1.63;;
6374;SDS011;35400;45.472;-122.822;2023-04-15T05:59:32;2.23;;;1.20;;
6374;SDS011;35400;45.472;-122.822;2023-04-15T06:01:59;2.90;;;1.50;;
6374;SDS011;35400;45.472;-122.822;2023-04-15T06:04:26;1.70;;;1.40;;
6374;SDS011;35400;45.472;-122.822;2023-04-15T06:06:53;2.40;;;1.50;;
6374;SDS011;35400;45.472;-122.822;2023-04-15T06:09:20;2.17;;;1.20;;
6374;SDS011;35400;45.472;-122.822;2023-04-15T06:11:47;1.97;;;1.57;;
6374;SDS011;35400;45.472;-122.822;2023-04-15T06:14:14;2.97;;;2.00;;
6374;SDS011;35400;45.472;-122.822;2023-04-15T06:16:41;2.77;;;2.17;;
6374;SDS011;35400;45.472;-122.822;2023-04-15T06:19:08;1.97;;;1.80;;
6374;SDS011;35400;45.472;-122.822;2023-04-15T06:21:35;5.87;;;2.43;;
6374;SDS011;35400;45.472;-122.822;2023-04-15T06:24:02;2.23;;;2.03;;
6374;SDS011;35400;45.472;-122.822;2023-04-15T06:26:29;4.97;;;1.87;;
6374;SDS011;35400;45.472;-122.822;2023-04-15T06:28:55;2.10;;;1.90;;
6374;SDS011;35400;45.472;-122.822;2023-04-15T06:31:22;3.10;;;1.70;;
6374;SDS011;35400;45.472;-122.822;2023-04-15T06:33:49;4.87;;;2.13;;
6374;SDS011;35400;45.472;-122.822;2023-04-15T06:36:16;2.57;;;2.20;;
6374;SDS011;35400;45.472;-122.822;2023-04-15T06:38:43;3.07;;;2.00;;
6374;SDS011;35400;45.472;-122.822;2023-04-15T06:41:10;2.10;;;1.90;;
6374;SDS011;35400;45.472;-122.822;2023-04-15T06:43:37;2.60;;;1.97;;
6374;SDS011;35400;45.472;-122.822;2023-04-15T06:46:04;3.33;;;2.00;;
6374;SDS011;35400;45.472;-122.822;2023-04-15T06:48:31;2.93;;;1.87;;
6374;SDS011;35400;45.472;-122.822;2023-04-15T06:50:58;2.20;;;1.90;;
6374;SDS011;35400;45.472;-122.822;2023-04-15T06:53:25;3.40;;;2.07;;
6374;SDS011;35400;45.472;-122.822;2023-04-15T06:55:55;3.47;;;2.03;;
6374;SDS011;35400;45.472;-122.822;2023-04-15T06:58:21;2.90;;;1.93;;
6374;SDS011;35400;45.472;-122.822;2023-04-15T07:00:48;4.20;;;1.80;;
6374;SDS011;35400;45.472;-122.822;2023-04-15T07:03:15;2.50;;;2.20;;
6374;SDS011;35400;45.472;-122.822;2023-04-15T07:05:42;1.60;;;1.40;;
6374;SDS011;35400;45.472;-122.822;2023-04-15T07:08:09;2.07;;;1.63;;
6374;SDS011;35400;45.472;-122.822;2023-04-15T07:10:36;2.03;;;1.50;;
6374;SDS011;35400;45.472;-122.822;2023-04-15T07:13:03;2.10;;;1.53;;
6374;SDS011;35400;45.472;-122.822;2023-04-15T07:15:31;4.23;;;1.77;;
6374;SDS011;35400;45.472;-122.822;2023-04-15T07:17:58;2.27;;;1.90;;
6374;SDS011;35400;45.472;-122.822;2023-04-15T07:20:25;1.97;;;1.67;;
6374;SDS011;35400;45.472;-122.822;2023-04-15T07:22:52;3.10;;;1.80;;
6374;SDS011;35400;45.472;-122.822;2023-04-15T07:25:19;4.20;;;1.50;;
6374;SDS011;35400;45.472;-122.822;2023-04-15T07:27:46;1.70;;;1.57;;
6374;SDS011;35400;45.472;-122.822;2023-04-15T07:30:13;2.03;;;1.77;;
6374;SDS011;35400;45.472;-122.822;2023-04-15T07:32:40;3.87;;;1.87;;
6374;SDS011;35400;45.472;-122.822;2023-04-15T07:35:07;2.60;;;1.87;;
6374;SDS011;35400;45.472;-122.822;2023-04-15T07:37:35;1.93;;;1.80;;
6374;SDS011;35400;45.472;-122.822;2023-04-15T07:40:02;2.57;;;1.87;;
6374;SDS011;35400;45.472;-122.822;2023-04-15T07:42:29;2.50;;;2.30;;
6374;SDS011;35400;45.472;-122.822;2023-04-15T07:44:56;2.90;;;2.47;;
6374;SDS011;35400;45.472;-122.822;2023-04-15T07:47:23;4.00;;;2.87;;
6374;SDS011;35400;45.472;-122.822;2023-04-15T07:49:50;4.83;;;3.00;;
6374;SDS011;35400;45.472;-122.822;2023-04-15T07:52:17;3.90;;;3.50;;
6374;SDS011;35400;45.472;-122.822;2023-04-15T07:54:44;3.53;;;3.23;;
6374;SDS011;35400;45.472;-122.822;2023-04-15T07:57:11;3.57;;;3.27;;
6374;SDS011;35400;45.472;-122.822;2023-04-15T07:59:38;4.70;;;4.27;;
6374;SDS011;35400;45.472;-122.822;2023-04-15T08:02:05;7.43;;;5.80;;
6374;SDS011;35400;45.472;-122.822;2023-04-15T08:04:33;6.13;;;5.63;;
6374;SDS011;35400;45.472;-122.822;2023-04-15T08:06:59;7.77;;;7.03;;
6374;SDS011;35400;45.472;-122.822;2023-04-15T08:09:26;8.00;;;7.17;;
6374;SDS011;35400;45.472;-122.822;2023-04-15T08:11:53;6.77;;;6.17;;
6374;SDS011;35400;45.472;-122.822;2023-04-15T08:14:21;6.27;;;5.77;;
6374;SDS011;35400;45.472;-122.822;2023-04-15T08:16:49;4.53;;;4.03;;
6374;SDS011;35400;45.472;-122.822;2023-04-15T08:19:16;6.40;;;4.63;;
6374;SDS011;35400;45.472;-122.822;2023-04-15T08:21:43;5.50;;;4.13;;
6374;SDS011;35400;45.472;-122.822;2023-04-15T08:24:10;3.13;;;2.87;;
6374;SDS011;35400;45.472;-122.822;2023-04-15T08:26:37;3.53;;;2.60;;
6374;SDS011;35400;45.472;-122.822;2023-04-15T08:29:04;4.10;;;2.50;;
6374;SDS011;35400;45.472;-122.822;2023-04-15T08:31:31;3.70;;;2.30;;
6374;SDS011;35400;45.472;-122.822;2023-04-15T08:33:58;4.13;;;2.17;;
6374;SDS011;35400;45.472;-122.822;2023-04-15T08:36:25;2.50;;;2.30;;
6374;SDS011;35400;45.472;-122.822;2023-04-15T08:38:52;3.50;;;2.30;;
6374;SDS011;35400;45.472;-122.822;2023-04-15T08:41:22;2.90;;;2.57;;
6374;SDS011;35400;45.472;-122.822;2023-04-15T08:43:52;3.27;;;2.10;;
6374;SDS011;35400;45.472;-122.822;2023-04-15T08:46:22;2.50;;;2.27;;
6374;SDS011;35400;45.472;-122.822;2023-04-15T08:48:49;3.57;;;2.60;;
6374;SDS011;35400;45.472;-122.822;2023-04-15T08:51:17;2.90;;;2.70;;
6374;SDS011;35400;45.472;-122.822;2023-04-15T08:53:45;3.07;;;2.77;;
6374;SDS011;35400;45.472;-122.822;2023-04-15T08:56:13;2.60;;;2.40;;
6374;SDS011;35400;45.472;-122.822;2023-04-15T08:58:43;3.00;;;2.23;;
6374;SDS011;35400;45.472;-122.822;2023-04-15T09:01:11;2.50;;;2.30;;
6374;SDS011;35400;45.472;-122.822;2023-04-15T09:03:38;4.47;;;2.63;;
6374;SDS011;35400;45.472;-122.822;2023-04-15T09:06:06;2.80;;;2.47;;
6374;SDS011;35400;45.472;-122.822;2023-04-15T09:08:33;3.87;;;2.03;;
6374;SDS011;35400;45.472;-122.822;2023-04-15T09:11:01;3.20;;;2.37;;
6374;SDS011;35400;45.472;-122.822;2023-04-15T09:13:28;4.90;;;2.30;;
6374;SDS011;35400;45.472;-122.822;2023-04-15T09:15:55;4.30;;;2.20;;
6374;SDS011;35400;45.472;-122.822;2023-04-15T09:18:28;2.47;;;2.20;;
6374;SDS011;35400;45.472;-122.822;2023-04-15T09:21:06;2.43;;;2.00;;
6374;SDS011;35400;45.472;-122.822;2023-04-15T09:23:36;3.00;;;2.57;;
6374;SDS011;35400;45.472;-122.822;2023-04-15T09:26:04;2.30;;;2.10;;
6374;SDS011;35400;45.472;-122.822;2023-04-15T09:28:32;3.43;;;1.97;;
6374;SDS011;35400;45.472;-122.822;2023-04-15T09:31:06;1.90;;;1.67;;
6374;SDS011;35400;45.472;-122.822;2023-04-15T09:33:33;3.80;;;2.30;;
6374;SDS011;35400;45.472;-122.822;2023-04-15T09:36:03;3.17;;;2.00;;
6374;SDS011;35400;45.472;-122.822;2023-04-15T09:38:30;2.10;;;1.90;;
6374;SDS011;35400;45.472;-122.822;2023-04-15T09:40:58;2.87;;;1.70;;
6374;SDS011;35400;45.472;-122.822;2023-04-15T09:43:36;2.10;;;1.87;;
6374;SDS011;35400;45.472;-122.822;2023-04-15T09:46:04;1.93;;;1.77;;
6374;SDS011;35400;45.472;-122.822;2023-04-15T09:48:31;2.07;;;1.70;;
6374;SDS011;35400;45.472;-122.822;2023-04-15T09:50:59;2.17;;;1.90;;
6374;SDS011;35400;45.472;-122.822;2023-04-15T09:53:26;3.73;;;2.20;;
6374;SDS011;35400;45.472;-122.822;2023-04-15T09:58:25;3.30;;;2.23;;
6374;SDS011;35400;45.472;-122.822;2023-04-15T10:00:54;4.03;;;2.00;;
6374;SDS011;35400;45.472;-122.822;2023-04-15T10:03:23;2.43;;;1.83;;
6374;SDS011;35400;45.472;-122.822;2023-04-15T10:05:52;2.50;;;1.80;;
6374;SDS011;35400;45.472;-122.822;2023-04-15T10:08:25;2.43;;;2.20;;
6374;SDS011;35400;45.472;-122.822;2023-04-15T10:10:57;2.10;;;1.90;;
6374;SDS011;35400;45.472;-122.822;2023-04-15T10:13:28;2.13;;;1.93;;
6374;SDS011;35400;45.472;-122.822;2023-04-15T10:16:05;2.93;;;1.67;;
6374;SDS011;35400;45.472;-122.822;2023-04-15T10:18:37;1.93;;;1.73;;
6374;SDS011;35400;45.472;-122.822;2023-04-15T10:21:10;3.23;;;1.77;;
6374;SDS011;35400;45.472;-122.822;2023-04-15T10:23:46;2.30;;;1.77;;
6374;SDS011;35400;45.472;-122.822;2023-04-15T10:26:13;3.53;;;1.90;;
6374;SDS011;35400;45.472;-122.822;2023-04-15T10:28:42;2.70;;;2.50;;
6374;SDS011;35400;45.472;-122.822;2023-04-15T10:31:11;2.50;;;1.93;;
6374;SDS011;35400;45.472;-122.822;2023-04-15T10:33:42;2.77;;;1.97;;
6374;SDS011;35400;45.472;-122.822;2023-04-15T10:36:10;3.37;;;1.67;;
6374;SDS011;35400;45.472;-122.822;2023-04-15T10:38:44;2.10;;;1.93;;
6374;SDS011;35400;45.472;-122.822;2023-04-15T10:41:19;2.20;;;2.00;;
6374;SDS011;35400;45.472;-122.822;2023-04-15T10:44:20;2.73;;;1.80;;
6374;SDS011;35400;45.472;-122.822;2023-04-15T10:46:41;2.07;;;1.87;;
6374;SDS011;35400;45.472;-122.822;2023-04-15T10:49:16;2.23;;;2.00;;
6374;SDS011;35400;45.472;-122.822;2023-04-15T10:51:51;4.13;;;2.40;;
6374;SDS011;35400;45.472;-122.822;2023-04-15T10:59:32;3.53;;;2.13;;
6374;SDS011;35400;45.472;-122.822;2023-04-15T11:02:06;3.87;;;1.83;;
6374;SDS011;35400;45.472;-122.822;2023-04-15T11:04:52;3.00;;;2.10;;
6374;SDS011;35400;45.472;-122.822;2023-04-15T11:07:33;3.57;;;2.10;;
6374;SDS011;35400;45.472;-122.822;2023-04-15T11:12:49;5.97;;;2.80;;
6374;SDS011;35400;45.472;-122.822;2023-04-15T11:18:08;1.63;;;1.53;;
6374;SDS011;35400;45.472;-122.822;2023-04-15T11:20:36;2.67;;;1.80;;
6374;SDS011;35400;45.472;-122.822;2023-04-15T11:23:04;1.70;;;1.60;;
6374;SDS011;35400;45.472;-122.822;2023-04-15T11:25:32;2.57;;;1.73;;
6374;SDS011;35400;45.472;-122.822;2023-04-15T11:28:00;2.83;;;1.80;;
6374;SDS011;35400;45.472;-122.822;2023-04-15T11:30:28;2.40;;;2.07;;
6374;SDS011;35400;45.472;-122.822;2023-04-15T11:32:57;3.63;;;2.50;;
6374;SDS011;35400;45.472;-122.822;2023-04-15T11:35:25;2.20;;;1.90;;
6374;SDS011;35400;45.472;-122.822;2023-04-15T11:37:53;2.50;;;2.30;;
6374;SDS011;35400;45.472;-122.822;2023-04-15T11:40:24;3.00;;;2.30;;
6374;SDS011;35400;45.472;-122.822;2023-04-15T11:43:05;3.00;;;2.40;;
6374;SDS011;35400;45.472;-122.822;2023-04-15T11:45:59;3.23;;;2.53;;
6374;SDS011;35400;45.472;-122.822;2023-04-15T11:48:31;3.70;;;3.20;;
6374;SDS011;35400;45.472;-122.822;2023-04-15T11:51:01;4.40;;;3.07;;
6374;SDS011;35400;45.472;-122.822;2023-04-15T11:56:17;3.03;;;2.73;;
6374;SDS011;35400;45.472;-122.822;2023-04-15T11:58:54;4.90;;;3.27;;
6374;SDS011;35400;45.472;-122.822;2023-04-15T12:01:30;5.03;;;3.83;;
6374;SDS011;35400;45.472;-122.822;2023-04-15T12:04:01;6.00;;;3.27;;
6374;SDS011;35400;45.472;-122.822;2023-04-15T12:06:35;3.93;;;3.20;;
6374;SDS011;35400;45.472;-122.822;2023-04-15T12:12:06;6.00;;;3.80;;
6374;SDS011;35400;45.472;-122.822;2023-04-15T12:14:32;4.30;;;2.90;;
6374;SDS011;35400;45.472;-122.822;2023-04-15T12:17:03;3.70;;;3.10;;
6374;SDS011;35400;45.472;-122.822;2023-04-15T12:19:35;3.90;;;2.60;;
6374;SDS011;35400;45.472;-122.822;2023-04-15T12:22:04;4.30;;;2.80;;
6374;SDS011;35400;45.472;-122.822;2023-04-15T12:24:34;2.77;;;2.50;;
6374;SDS011;35400;45.472;-122.822;2023-04-15T12:27:03;4.23;;;2.90;;
6374;SDS011;35400;45.472;-122.822;2023-04-15T12:29:31;4.23;;;2.77;;
6374;SDS011;35400;45.472;-122.822;2023-04-15T12:32:09;2.70;;;2.50;;
6374;SDS011;35400;45.472;-122.822;2023-04-15T12:34:37;3.33;;;2.80;;
6374;SDS011;35400;45.472;-122.822;2023-04-15T12:37:06;4.80;;;2.67;;
6374;SDS011;35400;45.472;-122.822;2023-04-15T12:39:38;2.97;;;2.67;;
6374;SDS011;35400;45.472;-122.822;2023-04-15T12:42:06;5.13;;;3.00;;
6374;SDS011;35400;45.472;-122.822;2023-04-15T12:44:34;3.53;;;2.73;;
6374;SDS011;35400;45.472;-122.822;2023-04-15T12:47:01;4.10;;;2.83;;
6374;SDS011;35400;45.472;-122.822;2023-04-15T12:49:29;3.70;;;3.00;;
6374;SDS011;35400;45.472;-122.822;2023-04-15T12:51:58;5.27;;;2.90;;
6374;SDS011;35400;45.472;-122.822;2023-04-15T12:54:27;3.43;;;2.70;;
6374;SDS011;35400;45.472;-122.822;2023-04-15T12:56:55;4.47;;;2.70;;
6374;SDS011;35400;45.472;-122.822;2023-04-15T12:59:24;3.27;;;2.43;;
6374;SDS011;35400;45.472;-122.822;2023-04-15T13:01:51;5.07;;;2.70;;
6374;SDS011;35400;45.472;-122.822;2023-04-15T13:04:18;4.10;;;3.00;;
6374;SDS011;35400;45.472;-122.822;2023-04-15T13:06:46;4.20;;;2.70;;
6374;SDS011;35400;45.472;-122.822;2023-04-15T13:09:13;3.77;;;2.97;;
6374;SDS011;35400;45.472;-122.822;2023-04-15T13:11:40;3.47;;;2.30;;
6374;SDS011;35400;45.472;-122.822;2023-04-15T13:14:08;3.53;;;2.37;;
6374;SDS011;35400;45.472;-122.822;2023-04-15T13:16:36;3.63;;;2.50;;
6374;SDS011;35400;45.472;-122.822;2023-04-15T13:19:03;2.97;;;2.30;;
6374;SDS011;35400;45.472;-122.822;2023-04-15T13:21:30;3.47;;;2.30;;
6374;SDS011;35400;45.472;-122.822;2023-04-15T13:23:59;3.23;;;2.90;;
6374;SDS011;35400;45.472;-122.822;2023-04-15T13:26:26;4.33;;;2.40;;
6374;SDS011;35400;45.472;-122.822;2023-04-15T13:28:53;2.73;;;2.53;;
6374;SDS011;35400;45.472;-122.822;2023-04-15T13:31:20;4.43;;;2.67;;
6374;SDS011;35400;45.472;-122.822;2023-04-15T13:33:47;4.00;;;2.50;;
6374;SDS011;35400;45.472;-122.822;2023-04-15T13:36:14;3.23;;;2.67;;
6374;SDS011;35400;45.472;-122.822;2023-04-15T13:38:41;4.93;;;3.40;;
6374;SDS011;35400;45.472;-122.822;2023-04-15T13:41:08;4.40;;;2.70;;
6374;SDS011;35400;45.472;-122.822;2023-04-15T13:43:35;2.47;;;2.17;;
6374;SDS011;35400;45.472;-122.822;2023-04-15T13:46:02;3.50;;;3.20;;
6374;SDS011;35400;45.472;-122.822;2023-04-15T13:48:29;3.60;;;2.70;;
6374;SDS011;35400;45.472;-122.822;2023-04-15T13:50:56;4.00;;;3.27;;
6374;SDS011;35400;45.472;-122.822;2023-04-15T13:53:23;5.83;;;4.07;;
6374;SDS011;35400;45.472;-122.822;2023-04-15T13:55:50;4.40;;;3.33;;
6374;SDS011;35400;45.472;-122.822;2023-04-15T13:58:17;6.13;;;4.67;;
6374;SDS011;35400;45.472;-122.822;2023-04-15T14:00:43;5.03;;;3.53;;
6374;SDS011;35400;45.472;-122.822;2023-04-15T14:03:10;5.37;;;3.63;;
6374;SDS011;35400;45.472;-122.822;2023-04-15T14:05:37;6.50;;;3.67;;
6374;SDS011;35400;45.472;-122.822;2023-04-15T14:08:04;5.37;;;4.03;;
6374;SDS011;35400;45.472;-122.822;2023-04-15T14:10:31;4.37;;;3.83;;
6374;SDS011;35400;45.472;-122.822;2023-04-15T14:12:58;5.10;;;4.07;;
6374;SDS011;35400;45.472;-122.822;2023-04-15T14:15:25;8.13;;;4.17;;
6374;SDS011;35400;45.472;-122.822;2023-04-15T14:17:52;5.60;;;4.07;;
6374;SDS011;35400;45.472;-122.822;2023-04-15T14:20:18;5.80;;;4.00;;
6374;SDS011;35400;45.472;-122.822;2023-04-15T14:22:45;5.43;;;4.00;;
6374;SDS011;35400;45.472;-122.822;2023-04-15T14:25:12;3.93;;;3.53;;
6374;SDS011;35400;45.472;-122.822;2023-04-15T14:27:39;4.97;;;3.93;;
6374;SDS011;35400;45.472;-122.822;2023-04-15T14:30:06;4.23;;;3.37;;
6374;SDS011;35400;45.472;-122.822;2023-04-15T14:32:33;5.40;;;3.33;;
6374;SDS011;35400;45.472;-122.822;2023-04-15T14:35:00;9.37;;;3.60;;
6374;SDS011;35400;45.472;-122.822;2023-04-15T14:37:27;5.60;;;3.10;;
6374;SDS011;35400;45.472;-122.822;2023-04-15T14:39:54;3.97;;;3.07;;
6374;SDS011;35400;45.472;-122.822;2023-04-15T14:42:21;4.27;;;3.30;;
6374;SDS011;35400;45.472;-122.822;2023-04-15T14:44:48;4.37;;;3.17;;